Logo
Newest Metar:
CYQR 170700Z 23009KT 15SM SKC M08/M10 A2993 RMK SLP172

Last 10 Metars:
CYQR 170600Z 24008KT 15SM SKC M07/M09 A2994 RMK SLP174
CYQR 170500Z 24010KT 15SM SKC M06/M09 A2993 RMK SLP170
CYQR 170400Z 26010KT 15SM FEW260 M05/M08 A2992 RMK CI2 SLP168
CYQR 170300Z 27012KT 15SM FEW260 M04/M07 A2992 RMK CI2 SLP168
CYQR 170200Z 27013KT 15SM FEW260 M03/M07 A2992 RMK CI2 SLP168
CYQR 170100Z 25010KT 15SM FEW260 M04/M07 A2991 RMK CI1 CI TR SLP165
CYQR 170000Z 26008KT 15SM SKC M04/M07 A2990 RMK SLP160
CYQR 162300Z 26012KT 15SM FEW260 M02/M06 A2988 RMK CI1 CI TR SLP152
CYQR 162200Z 27016KT 15SM FEW260 M00/M06 A2987 RMK CI1 SLP145
CYQR 162100Z 28017G22KT 15SM FEW260 01/M06 A2987 RMK CI1 SLP143

Click here for Saskatoon (YXE) International Weather